• Join FlightAware (Why Join?)
  • Login
  • US Flag 
03:35PM EDT


 

Airport Tracker/Info


-or-


 

Live Flight TrackerFlight Track Log ✈ EJA941 ✈ 09-Jan-2014 ✈ KPHX - KBWI

Flight Track Log - Related Links

Times and Time Zones

All times are in EST time to prevent confusion due to time zone crossing. See the EJA941 flight status page for this flight to view local times or setup timezone preferences in your user account.

Time Position Orientation Groundspeed Altitude Reporting Facility
EST Latitude Longitude Course Direction KTS MPH feet Rate Location/Type
01:31PM 33.4333 -111.9667 90° East 193 222 2,900  Level Phoenix TRACON
01:31PM 33.4333 -111.9333 90° East 215 247 4,800 3,720 Climbing Phoenix TRACON
01:32PM 33.4500 -111.8500 76° East 253 291 8,900 3,060 Climbing Phoenix TRACON
01:33PM 33.4528 -111.7933 87° East 259 298 10,300 2,880 Climbing Albuquerque Center
01:34PM 33.4628 -111.7100 82° East 255 293 14,200 2,760 Climbing Albuquerque Center
01:35PM 33.4775 -111.5939 81° East 304 350 16,100 1,440 Climbing Albuquerque Center
01:36PM 33.4911 -111.4775 82° East 352 405 17,200 960 Climbing Albuquerque Center
01:37PM 33.5058 -111.3461 82° East 395 455 18,200 1,020 Climbing Albuquerque Center
01:38PM 33.5217 -111.2028 82° East 431 496 19,400 1,320 Climbing Albuquerque Center
01:39PM 33.5386 -111.0550 82° East 449 517 21,000 1,800 Climbing Albuquerque Center
01:40PM 33.5642 -110.8719 80° East 463 533 23,200 1,920 Climbing Albuquerque Center
01:41PM 33.6106 -110.7261 69° East 468 539 25,000 1,740 Climbing Albuquerque Center
01:42PM 33.6581 -110.5772 69° East 476 548 26,800 1,680 Climbing Albuquerque Center
01:44PM 33.7058 -110.4242 69° East 486 559 28,600 1,740 Climbing Albuquerque Center
01:45PM 33.7644 -110.2425 69° East 502 578 30,400 1,500 Climbing Albuquerque Center
01:46PM 33.8178 -110.0764 69° East 520 598 31,800 1,680 Climbing Albuquerque Center
01:47PM 33.8717 -109.9075 69° East 533 613 33,900 1,920 Climbing Albuquerque Center
01:48PM 33.9253 -109.7397 69° East 537 618 35,800 1,980 Climbing Albuquerque Center
01:49PM 33.9775 -109.5747 69° East 530 610 38,000 1,560 Climbing Albuquerque Center
01:50PM 34.0222 -109.4100 72° East 522 601 39,100 960 Climbing Albuquerque Center
01:51PM 34.0672 -109.2419 72° East 522 601 40,100 840 Climbing Albuquerque Center
01:52PM 34.1167 -109.0550 72° East 525 604 40,900 420 Climbing Albuquerque Center
01:53PM 34.1681 -108.8656 72° East 529 609 41,000  Climbing Albuquerque Center
01:54PM 34.2136 -108.6936 72° East 538 619 41,000  Level Albuquerque Center
01:55PM 34.2611 -108.5131 72° East 552 635 41,000  Level Albuquerque Center
01:56PM 34.3119 -108.3144 73° East 561 646 41,000  Level Albuquerque Center
01:57PM 34.3600 -108.1342 72° East 565 650 41,000  Level Albuquerque Center
01:58PM 34.4069 -107.9525 73° East 566 651 41,000  Level Albuquerque Center
01:59PM 34.4528 -107.7694 73° East 569 655 41,000  Level Albuquerque Center
02:00PM 34.4975 -107.5869 73° East 568 654 41,000  Level Albuquerque Center
02:01PM 34.5525 -107.3689 73° East 567 652 41,000  Level Albuquerque Center
02:02PM 34.6017 -107.1853 72° East 562 647 41,000  Level Albuquerque Center
02:03PM 34.6492 -106.9889 74° East 563 648 41,000  Level Albuquerque Center
02:04PM 34.6919 -106.8169 73° East 563 648 41,000  Level Albuquerque Center
02:05PM 34.7358 -106.6353 74° East 562 647 41,000  Level Albuquerque Center
02:06PM 34.7789 -106.4544 74° East 561 646 41,000  Level Albuquerque Center
02:07PM 34.8303 -106.2381 74° East 558 642 41,000 -60 Level Albuquerque Center
02:08PM 34.8736 -106.0542 74° East 566 651 40,900  Descending Albuquerque Center
02:09PM 34.9169 -105.8731 74° East 563 648 41,000  Climbing Albuquerque Center
02:10PM 34.9594 -105.6964 74° East 553 636 41,000  Level Albuquerque Center
02:11PM 35.0028 -105.5044 75° East 557 641 41,000  Level Albuquerque Center
02:12PM 35.0456 -105.3192 74° East 560 644 41,000  Level Albuquerque Center
02:14PM 35.0886 -105.1339 74° East 562 647 41,000  Level Albuquerque Center
02:15PM 35.1367 -104.9156 75° East 565 650 41,000  Level Albuquerque Center
02:16PM 35.1747 -104.7283 76° East 565 650 41,000  Level Albuquerque Center
02:17PM 35.2103 -104.5550 76° East 568 654 41,000 -60 Level Albuquerque Center
02:18PM 35.2489 -104.3683 76° East 568 654 40,900  Descending Albuquerque Center
02:19PM 35.2931 -104.1444 76° East 567 652 41,000  Climbing Albuquerque Center
02:20PM 35.3311 -103.9575 76° East 566 651 41,000  Level Albuquerque Center
02:22PM 35.4039 -103.5825 77° East 565 650 41,000  Level Albuquerque Center
02:23PM 35.4406 -103.3931 77° East 566 651 41,000  Level Albuquerque Center
02:24PM 35.4761 -103.2050 77° East 563 648 41,000  Level Albuquerque Center
02:25PM 35.5108 -103.0169 77° East 561 646 41,000  Level Albuquerque Center
02:26PM 35.5525 -102.7978 77° East 561 646 41,000  Level Albuquerque Center
02:27PM 35.5872 -102.6050 77° East 563 648 41,000  Level Albuquerque Center
02:28PM 35.6225 -102.4181 77° East 562 647 41,000  Level Albuquerque Center
02:29PM 35.6564 -102.2297 77° East 562 647 41,000  Level Albuquerque Center
02:30PM 35.6911 -102.0406 77° East 563 648 41,000  Level Albuquerque Center
02:31PM 35.7250 -101.8519 77° East 562 647 41,000  Level Albuquerque Center
02:32PM 35.7572 -101.6636 78° East 559 643 41,000  Level Albuquerque Center
02:33PM 35.7906 -101.4742 78° East 561 646 41,000  Level Albuquerque Center
02:34PM 35.8394 -101.2911 72° East 564 649 41,000  Level Albuquerque Center
02:35PM 35.9167 -101.0794 66° East 561 646 41,000  Level Albuquerque Center
02:36PM 35.9828 -100.8928 66° East 564 649 41,000  Level Albuquerque Center
02:37PM 36.0469 -100.7158 66° East 563 648 41,000  Level Albuquerque Center
02:38PM 36.1108 -100.5369 66° East 566 651 41,000  Level Albuquerque Center
02:39PM 36.1750 -100.3581 66° East 566 651 41,000  Level Albuquerque Center
02:40PM 36.2383 -100.1767 67° East 569 655 41,000  Level Albuquerque Center
02:41PM 36.3042 -99.9950 66° East 573 659 41,000  Level Albuquerque Center
02:43PM 36.3675 -99.7317 73° East 562 647 41,000  Level Kansas City Center
02:44PM 36.3972 -99.5394 79° East 562 647 41,000  Level Kansas City Center
02:45PM 36.4269 -99.3461 79° East 563 648 41,000  Level Kansas City Center
02:46PM 36.4578 -99.1514 79° East 565 650 41,000  Level Kansas City Center
02:47PM 36.4928 -98.9186 79° East 565 650 41,000  Level Kansas City Center
02:48PM 36.5222 -98.7275 79° East 561 646 41,000  Level Kansas City Center
02:49PM 36.5511 -98.5336 79° East 565 650 41,000  Level Kansas City Center
02:50PM 36.5794 -98.3403 80° East 565 650 41,000  Level Kansas City Center
02:51PM 36.6075 -98.1486 80° East 563 648 41,000  Level Kansas City Center
02:52PM 36.6353 -97.9558 80° East 563 648 41,000  Level Kansas City Center
02:53PM 36.6631 -97.7636 80° East 562 647 41,000  Level Kansas City Center
02:54PM 36.6950 -97.5369 80° East 571 657 41,000  Level Kansas City Center
02:55PM 36.7217 -97.3444 80° East 566 651 41,000  Level Kansas City Center
02:56PM 36.7483 -97.1517 80° East 564 649 41,000  Level Kansas City Center
02:57PM 36.7836 -96.9492 78° East 564 649 41,000  Level Kansas City Center
02:58PM 36.8172 -96.7561 78° East 567 652 41,000  Level Kansas City Center
02:59PM 36.8503 -96.5614 78° East 570 656 41,000  Level Kansas City Center
03:00PM 36.8842 -96.3669 78° East 570 656 41,000  Level Kansas City Center
03:01PM 36.9167 -96.1706 78° East 572 658 41,000  Level Kansas City Center
03:02PM 36.9503 -95.9725 78° East 577 664 41,000  Level Kansas City Center
03:04PM 36.9886 -95.7342 79° East 578 665 41,000  Level Kansas City Center
03:05PM 37.0217 -95.5336 78° East 581 669 41,000  Level Kansas City Center
03:06PM 37.0539 -95.3314 79° East 585 673 41,000  Level Kansas City Center
03:07PM 37.0853 -95.1294 79° East 586 674 41,000  Level Kansas City Center
03:08PM 37.1183 -94.9281 78° East 586 674 41,000  Level Kansas City Center
03:09PM 37.1486 -94.7258 79° East 587 676 41,000  Level Kansas City Center
03:10PM 37.1806 -94.5222 79° East 591 680 41,000  Level Kansas City Center
03:11PM 37.2106 -94.3186 79° East 591 680 41,000  Level Kansas City Center
03:12PM 37.2403 -94.1147 80° East 591 680 41,000  Level Kansas City Center
03:13PM 37.2739 -93.8983 79° East 596 686 41,000  Level Kansas City Center
03:14PM 37.3033 -93.6933 80° East 596 686 41,000  Level Kansas City Center
03:15PM 37.3389 -93.4481 80° East 595 685 41,000  Level Kansas City Center
03:16PM 37.3669 -93.2422 80° East 596 686 41,000  Level Kansas City Center
03:17PM 37.3894 -93.0358 82° East 597 687 41,000  Level Kansas City Center
03:18PM 37.4133 -92.8283 82° East 598 688 41,000  Level Kansas City Center
03:19PM 37.4361 -92.6189 82° East 604 695 41,000  Level Kansas City Center
03:20PM 37.4597 -92.4122 82° East 602 693 41,000  Level Kansas City Center
03:21PM 37.4850 -92.1647 83° East 599 689 41,000  Level Kansas City Center
03:22PM 37.5072 -91.9597 82° East 597 687 41,000  Level Kansas City Center
03:23PM 37.5289 -91.7514 82° East 599 689 41,000  Level Kansas City Center
03:24PM 37.5497 -91.5436 83° East 599 689 41,000  Level Kansas City Center
03:25PM 37.5711 -91.3342 83° East 601 692 41,000  Level Kansas City Center
03:26PM 37.5914 -91.1247 83° East 602 693 41,000  Level Kansas City Center
03:27PM 37.6156 -90.8719 83° East 604 695 41,000  Level Kansas City Center
03:28PM 37.6314 -90.6956 83° East 606 697 41,000  Level Kansas City Center
03:29PM 37.6539 -90.4458 83° East 603 694 41,000  Level Kansas City Center
03:30PM 37.6719 -90.2347 84° East 606 697 41,000  Level Kansas City Center
03:31PM 37.6956 -90.0267 82° East 606 697 41,000  Level Kansas City Center
03:32PM 37.7186 -89.8192 82° East 603 694 41,000  Level Kansas City Center
03:33PM 37.7406 -89.6122 82° East 601 692 41,000  Level Kansas City Center
03:34PM 37.7619 -89.4061 82° East 599 689 41,000  Level Kansas City Center
03:35PM 37.7850 -89.1808 83° East 599 689 41,000  Level Kansas City Center
03:37PM 37.8092 -88.9497 82° East 598 688 41,000  Level Kansas City Center
03:38PM 37.8281 -88.7439 83° East 594 684 41,000  Level Kansas City Center
03:39PM 37.8511 -88.5450 82° East 596 686 41,000  Level Kansas City Center
03:40PM 37.8772 -88.2919 82° East 602 693 41,000  Level Kansas City Center
03:41PM 37.8967 -88.0792 83° East 605 696 41,000  Level Kansas City Center
03:42PM 37.9172 -87.8678 83° East 605 696 41,000  Level Kansas City Center
03:43PM 37.9367 -87.6556 83° East 606 697 41,000  Level Kansas City Center
03:44PM 37.9633 -87.3589 83° East 605 696 41,000  Level Indianapolis Center
03:45PM 37.9803 -87.1486 84° East 606 697 41,000  Level Indianapolis Center
03:46PM 37.9989 -86.9389 84° East 606 697 41,000  Level Indianapolis Center
03:47PM 38.0156 -86.7278 84° East 607 699 41,000  Level Indianapolis Center
03:48PM 38.0353 -86.4756 84° East 603 694 41,000  Level Indianapolis Center
03:49PM 38.0519 -86.2658 84° East 599 689 41,000  Level Indianapolis Center
03:50PM 38.0681 -86.0547 84° East 601 692 41,000  Level Indianapolis Center
03:51PM 38.0836 -85.8447 85° East 598 688 41,000  Level Indianapolis Center
03:52PM 38.0969 -85.6333 85° East 602 693 41,000  Level Indianapolis Center
03:53PM 38.0806 -85.4244 96° East 597 687 41,000  Level Indianapolis Center
03:54PM 38.0411 -85.1803 102° East 591 680 41,000  Level Indianapolis Center
03:55PM 38.0106 -84.9761 101° East 591 680 41,000  Level Indianapolis Center
03:56PM 37.9764 -84.7731 102° East 587 676 41,000  Level Indianapolis Center
03:57PM 37.9433 -84.5708 102° East 586 674 41,000  Level Indianapolis Center
03:59PM 37.9111 -84.3711 101° East 578 665 41,000  Level Indianapolis Center
04:00PM 37.8769 -84.1683 102° East 586 674 41,000  Level Indianapolis Center
04:01PM 37.8367 -83.9297 102° East 594 684 41,000  Level Indianapolis Center
04:02PM 37.8028 -83.7225 102° East 597 687 41,000  Level Indianapolis Center
04:03PM 37.7678 -83.5189 102° East 595 685 41,000  Level Indianapolis Center
04:04PM 37.7331 -83.3139 102° East 593 682 41,000  Level Indianapolis Center
04:05PM 37.6969 -83.1078 102° East 597 687 41,000  Level Indianapolis Center
04:06PM 37.6592 -82.9025 103° East 597 687 41,000  Level Indianapolis Center
04:07PM 37.6425 -82.6939 96° East 603 694 41,000  Level Indianapolis Center
04:08PM 37.6625 -82.4422 84° East 617 710 41,000  Level Indianapolis Center
04:09PM 37.6828 -82.2269 83° East 616 709 41,000  Level Indianapolis Center
04:10PM 37.7036 -82.0144 83° East 610 702 41,000  Level Indianapolis Center
04:11PM 37.7236 -81.7972 83° East 618 711 41,000  Level Indianapolis Center
04:12PM 37.7425 -81.5819 84° East 618 711 41,000  Level Indianapolis Center
04:13PM 37.7597 -81.3611 84° East 618 711 41,000  Level Indianapolis Center
04:14PM 37.7775 -81.1489 84° East 621 715 41,000  Level Indianapolis Center
04:15PM 37.7950 -80.8950 85° East 620 713 41,000  Level Indianapolis Center
04:16PM 37.8089 -80.6817 85° East 623 717 41,000  Level Indianapolis Center
04:17PM 37.8164 -80.5497 86° East 614 707 41,000  Level Washington Center
04:18PM 37.8344 -80.3064 85° East 619 712 41,000  Level Washington Center
04:19PM 37.8758 -80.0958 76° East 624 718 41,000  Level Washington Center
04:20PM 37.9458 -79.8947 66° East 617 710 41,000  Level Washington Center
04:21PM 38.0175 -79.6958 65° Northeast 617 710 41,000 -180 Level Washington Center
04:22PM 38.0867 -79.4964 66° East 617 710 40,700 -1,920 Descending Washington Center
04:23PM 38.1556 -79.3019 66° East 612 704 37,200 -4,080 Descending Washington Center
04:24PM 38.2147 -79.1356 66° East 590 679 32,600 -4,500 Descending Washington Center
04:25PM 38.2761 -78.9614 66° East 562 647 28,200 -2,880 Descending Washington Center
04:26PM 38.3400 -78.7631 68° East 546 628 27,000 -660 Descending Washington Center
04:27PM 38.4031 -78.5803 66° East 552 635 27,000 -900 Level Washington Center
04:28PM 38.4617 -78.3997 67° East 552 635 25,300 -2,220 Descending Washington Center
04:29PM 38.5197 -78.2267 67° East 546 628 22,600 -2,580 Descending Washington Center
04:30PM 38.5775 -78.0589 66° East 533 613 20,100 -1,800 Descending Washington Center
04:31PM 38.6286 -77.8931 68° East 515 593 19,000 -660 Descending Washington Center
04:32PM 38.6506 -77.7183 81° East 502 578 18,900 -600 Descending Washington Center
04:33PM 38.6411 -77.5425 94° East 487 560 17,900 -1,380 Descending Washington Center
04:34PM 38.6208 -77.3800 99° East 487 560 16,100 -960 Descending Washington Center
04:35PM 38.6039 -77.2414 99° East 442 509 16,000 -720 Descending Washington Center
04:36PM 38.5869 -77.1056 99° East 405 466 14,800 -1,200 Descending Washington Center
04:37PM 38.5947 -76.9756 86° East 376 433 13,700 -1,200 Descending Washington Center
04:38PM 38.6128 -76.8617 78° East 346 398 12,400 -1,320 Descending Washington Center
04:39PM 38.6242 -76.7689 81° East 338 389 11,100 -1,860 Descending Washington Center
04:41PM 38.7167 -76.5833 57° Northeast 290 334 7,000 -1,740 Descending Potomac TRACON
04:42PM 38.7833 -76.5500 21° North 267 307 6,000 -900 Descending Potomac TRACON
04:43PM 38.8667 -76.5333 North 269 310 5,200 -900 Descending Potomac TRACON
04:44PM 38.9333 -76.5333 360° North 270 311 4,200 -960 Descending Potomac TRACON
04:45PM 39.0167 -76.5333 360° North 263 303 3,300 -780 Descending Potomac TRACON
04:46PM 39.0667 -76.5667 333° Northwest 213 245 2,700 -780 Descending Potomac TRACON
04:47PM 39.1167 -76.6000 333° Northwest 154 177 1,700 -900 Descending Potomac TRACON
04:48PM 39.1500 -76.6167 339° North 134 154 900 -900 Descending Potomac TRACON
04:50PM 39.1667 -76.6667 339° North  Level FlightAware Approximate
04:57PM 39.1754 -76.6683 339° North  Level Estimated
04:58PM 39.1754 -76.6683 339° North  Level Estimated
04:59PM 39.1754 -76.6683 339° North  Level Estimated
05:00PM 39.1754 -76.6683 339° North  Level Estimated